Time;durP1;ratioP1;P1;durP2;ratioP2;P2;SDS_P1;SDS_P2;PMS_P1;PMS_P2;Temp;Humidity;BMP_temperature;BMP_pressure;BME280_temperature;BME280_humidity;BME280_pressure;Samples;Min_cycle;Max_cycle;Signal;HPM_P1;HPM_P2
2023/08/21 00:01:17;;;;;;;;;;;19.90;99.90;;;;;;8421631;28;19932;-72
2023/08/21 00:05:18;;;;;;;;;;;19.90;99.90;;;;;;8434576;27;20375;-72
2023/08/21 00:09:22;;;;;;;;;;;19.80;99.90;;;;;;8404136;28;20290;-73
2023/08/21 00:13:23;;;;;;;;;;;19.80;99.90;;;;;;8426921;28;19990;-72
2023/08/21 00:17:25;;;;;;;;;;;19.70;99.90;;;;;;8433814;28;19932;-72
2023/08/21 00:21:27;;;;;;;;;;;19.70;99.90;;;;;;8409441;28;19928;-72
2023/08/21 00:25:28;;;;;;;;;;;19.70;99.90;;;;;;8416142;28;19931;-73
2023/08/21 00:29:30;;;;;;;;;;;19.70;99.90;;;;;;8415292;28;20352;-72
2023/08/21 00:33:32;;;;;;;;;;;19.70;99.90;;;;;;8430246;28;20332;-73
2023/08/21 00:37:34;;;;;;;;;;;19.70;99.90;;;;;;8440388;28;19935;-73
2023/08/21 00:41:35;;;;;;;;;;;19.60;99.90;;;;;;8436048;28;19946;-73
2023/08/21 00:45:39;;;;;;;;;;;19.50;99.90;;;;;;8427992;28;19924;-72
2023/08/21 00:49:41;;;;;;;;;;;19.50;99.90;;;;;;8421855;28;19932;-72
2023/08/21 00:53:44;;;;;;;;;;;19.50;99.90;;;;;;8419871;28;19929;-73
2023/08/21 00:57:45;;;;;;;;;;;19.50;99.90;;;;;;8414931;28;19932;-73
2023/08/21 01:01:47;;;;;;;;;;;19.60;99.90;;;;;;8429994;27;19924;-72
2023/08/21 01:05:49;;;;;;;;;;;19.60;99.90;;;;;;8421111;28;20438;-72
2023/08/21 01:10:09;;;;;;;;;;;19.60;99.90;;;;;;8426865;28;19923;-73
2023/08/21 01:14:19;;;;;;;;;;;19.60;99.90;;;;;;8393453;28;20285;-72
2023/08/21 01:18:21;;;;;;;;;;;19.50;99.90;;;;;;8434286;27;19930;-73
2023/08/21 01:22:27;;;;;;;;;;;19.50;99.90;;;;;;8408817;28;19930;-72
2023/08/21 01:26:29;;;;;;;;;;;19.50;99.90;;;;;;8426814;28;19924;-72
2023/08/21 01:30:32;;;;;;;;;;;19.50;99.90;;;;;;8422132;28;19924;-72
2023/08/21 01:34:36;;;;;;;;;;;19.50;99.90;;;;;;8398897;28;20321;-72
2023/08/21 01:38:37;;;;;;;;;;;19.50;99.90;;;;;;8424146;28;19924;-72
2023/08/21 01:42:39;;;;;;;;;;;19.40;99.90;;;;;;8414701;28;19924;-72
2023/08/21 01:46:41;;;;;;;;;;;19.30;99.90;;;;;;8420706;28;20372;-73
2023/08/21 01:50:42;;;;;;;;;;;19.20;99.90;;;;;;8426388;28;19924;-72
2023/08/21 01:54:44;;;;;;;;;;;19.20;99.90;;;;;;8421146;28;19927;-72
2023/08/21 01:58:46;;;;;;;;;;;19.20;99.90;;;;;;8405906;28;19978;-72
2023/08/21 02:02:47;;;;;;;;;;;19.20;99.90;;;;;;8413124;28;19932;-72
2023/08/21 02:06:49;;;;;;;;;;;19.20;99.90;;;;;;8428371;28;19924;-72
2023/08/21 02:10:51;;;;;;;;;;;19.20;99.90;;;;;;8433601;27;19942;-72
2023/08/21 02:14:53;;;;;;;;;;;19.20;99.90;;;;;;8391455;28;19961;-72
2023/08/21 02:18:55;;;;;;;;;;;19.20;99.90;;;;;;8432850;28;19940;-72
2023/08/21 02:22:57;;;;;;;;;;;19.10;99.90;;;;;;8414845;28;19924;-72
2023/08/21 02:26:58;;;;;;;;;;;19.10;99.90;;;;;;8422750;28;19931;-72
2023/08/21 02:31:00;;;;;;;;;;;19.10;99.90;;;;;;8426966;28;19928;-72
2023/08/21 02:35:02;;;;;;;;;;;19.00;99.90;;;;;;8405324;28;20383;-72
2023/08/21 02:39:03;;;;;;;;;;;19.00;99.90;;;;;;8422429;28;20336;-72
2023/08/21 02:43:05;;;;;;;;;;;19.00;99.90;;;;;;8430404;28;19993;-72
2023/08/21 02:47:07;;;;;;;;;;;19.00;99.90;;;;;;8419696;28;19977;-72
2023/08/21 02:51:08;;;;;;;;;;;19.00;99.90;;;;;;8435716;28;19966;-72
2023/08/21 02:55:10;;;;;;;;;;;19.00;99.90;;;;;;8428244;28;19925;-72
2023/08/21 02:59:12;;;;;;;;;;;19.00;99.90;;;;;;8424443;28;20375;-73
2023/08/21 03:03:13;;;;;;;;;;;19.00;99.90;;;;;;8426739;28;20315;-72
2023/08/21 03:07:15;;;;;;;;;;;19.00;99.90;;;;;;8420937;28;19934;-72
2023/08/21 03:11:17;;;;;;;;;;;19.00;99.90;;;;;;8410602;28;19928;-72
2023/08/21 03:15:19;;;;;;;;;;;18.90;99.90;;;;;;8428848;28;19932;-72
2023/08/21 03:19:20;;;;;;;;;;;18.90;99.90;;;;;;8431307;28;19928;-72
2023/08/21 03:23:22;;;;;;;;;;;18.90;99.90;;;;;;8410304;28;19929;-72
2023/08/21 03:27:24;;;;;;;;;;;18.80;99.90;;;;;;8397290;28;19925;-72
2023/08/21 03:31:25;;;;;;;;;;;18.80;99.90;;;;;;8420971;28;19940;-72
2023/08/21 03:35:27;;;;;;;;;;;18.80;99.90;;;;;;8443018;28;19932;-72
2023/08/21 03:39:29;;;;;;;;;;;18.80;99.90;;;;;;8430163;28;20994;-72
2023/08/21 03:43:31;;;;;;;;;;;18.80;99.90;;;;;;8424507;28;19955;-72
2023/08/21 03:47:32;;;;;;;;;;;18.80;99.90;;;;;;8420510;28;19932;-72
2023/08/21 03:51:34;;;;;;;;;;;18.80;99.90;;;;;;8439822;28;19928;-72
2023/08/21 03:55:36;;;;;;;;;;;18.80;99.90;;;;;;8437518;28;19958;-72
2023/08/21 03:59:38;;;;;;;;;;;18.80;99.90;;;;;;8419372;28;19928;-72
2023/08/21 04:03:39;;;;;;;;;;;18.70;99.90;;;;;;8429120;28;19924;-72
2023/08/21 04:07:41;;;;;;;;;;;18.70;99.90;;;;;;8436529;28;20334;-72
2023/08/21 04:11:42;;;;;;;;;;;18.60;99.90;;;;;;8434911;28;19935;-72
2023/08/21 04:15:48;;;;;;;;;;;18.60;99.90;;;;;;8424037;28;19932;-72
2023/08/21 04:19:50;;;;;;;;;;;18.60;99.90;;;;;;8421215;28;19924;-72
2023/08/21 04:23:53;;;;;;;;;;;18.60;99.90;;;;;;8421585;28;19928;-72
2023/08/21 04:27:55;;;;;;;;;;;18.60;99.90;;;;;;8410890;28;19928;-72
2023/08/21 04:31:56;;;;;;;;;;;18.50;99.90;;;;;;8402252;28;19932;-72
2023/08/21 04:35:59;;;;;;;;;;;18.50;99.90;;;;;;8403775;28;19924;-72
2023/08/21 04:40:00;;;;;;;;;;;18.50;99.90;;;;;;8430597;28;19928;-72
2023/08/21 04:44:03;;;;;;;;;;;18.50;99.90;;;;;;8438430;28;20272;-72
2023/08/21 04:48:04;;;;;;;;;;;18.50;99.90;;;;;;8433833;28;19928;-72
2023/08/21 04:52:06;;;;;;;;;;;18.50;99.90;;;;;;8427674;28;20303;-73
2023/08/21 04:56:08;;;;;;;;;;;18.50;99.90;;;;;;8400836;28;19928;-72
2023/08/21 05:00:10;;;;;;;;;;;18.50;99.90;;;;;;8442298;28;19931;-72
2023/08/21 05:04:12;;;;;;;;;;;18.50;99.90;;;;;;8410894;28;19986;-72
2023/08/21 05:08:13;;;;;;;;;;;18.50;99.90;;;;;;8430167;28;19974;-72
2023/08/21 05:12:15;;;;;;;;;;;18.50;99.90;;;;;;8429177;28;19923;-72
2023/08/21 05:16:17;;;;;;;;;;;18.50;99.90;;;;;;8444598;27;19928;-72
2023/08/21 05:20:19;;;;;;;;;;;18.50;99.90;;;;;;8428729;28;19932;-72
2023/08/21 05:24:20;;;;;;;;;;;18.50;99.90;;;;;;8412268;28;19928;-73
2023/08/21 05:28:22;;;;;;;;;;;18.50;99.90;;;;;;8399156;28;19924;-72
2023/08/21 05:32:24;;;;;;;;;;;18.50;99.90;;;;;;8430352;28;19940;-72
2023/08/21 05:36:25;;;;;;;;;;;18.50;99.90;;;;;;8428401;28;20546;-72
2023/08/21 05:40:27;;;;;;;;;;;18.60;99.90;;;;;;8409432;28;19939;-72
2023/08/21 05:44:29;;;;;;;;;;;18.70;99.90;;;;;;8445728;28;19924;-72
2023/08/21 05:48:30;;;;;;;;;;;18.80;99.90;;;;;;8422817;28;19924;-72
2023/08/21 05:52:32;;;;;;;;;;;18.90;99.90;;;;;;8428460;28;19923;-72
2023/08/21 05:56:34;;;;;;;;;;;19.10;99.90;;;;;;8416257;28;20903;-72
2023/08/21 06:00:38;;;;;;;;;;;19.20;99.90;;;;;;8433918;28;19924;-72
2023/08/21 06:04:40;;;;;;;;;;;19.20;99.90;;;;;;8406650;28;19932;-72
2023/08/21 06:08:42;;;;;;;;;;;19.30;99.90;;;;;;8412248;28;19924;-72
2023/08/21 06:12:43;;;;;;;;;;;19.30;99.90;;;;;;8407488;28;19928;-72
2023/08/21 06:16:45;;;;;;;;;;;19.40;99.90;;;;;;8418122;28;20292;-72
2023/08/21 06:20:48;;;;;;;;;;;19.40;99.90;;;;;;8424201;28;19979;-72
2023/08/21 06:24:49;;;;;;;;;;;19.50;99.90;;;;;;8425669;28;19924;-72
2023/08/21 06:28:51;;;;;;;;;;;19.50;99.90;;;;;;8416179;28;19923;-72
2023/08/21 06:32:53;;;;;;;;;;;19.50;99.90;;;;;;8441376;28;19954;-72
2023/08/21 06:36:55;;;;;;;;;;;19.50;99.90;;;;;;8405030;28;19931;-72
2023/08/21 06:40:57;;;;;;;;;;;19.50;99.90;;;;;;8407012;28;19928;-72
2023/08/21 06:44:58;;;;;;;;;;;19.50;99.90;;;;;;8417280;28;19924;-72
2023/08/21 06:49:00;;;;;;;;;;;19.60;99.90;;;;;;8426502;28;19923;-72
2023/08/21 06:53:02;;;;;;;;;;;19.70;99.90;;;;;;8424146;28;19924;-72
2023/08/21 06:57:03;;;;;;;;;;;19.90;99.90;;;;;;8431707;28;20367;-72
2023/08/21 07:01:05;;;;;;;;;;;20.10;99.90;;;;;;8434939;28;19989;-72
2023/08/21 07:05:08;;;;;;;;;;;20.40;99.90;;;;;;8415137;28;20286;-73
2023/08/21 07:09:12;;;;;;;;;;;20.50;99.90;;;;;;8431671;28;20468;-72
2023/08/21 07:13:14;;;;;;;;;;;20.70;99.90;;;;;;8423579;28;19933;-72
2023/08/21 07:17:15;;;;;;;;;;;20.80;99.90;;;;;;8420258;28;19924;-72
2023/08/21 07:21:17;;;;;;;;;;;20.90;99.90;;;;;;8429989;28;19931;-72
2023/08/21 07:25:33;;;;;;;;;;;21.00;99.90;;;;;;8416743;28;19925;-72
2023/08/21 07:29:34;;;;;;;;;;;21.10;99.90;;;;;;8412727;28;19924;-72
2023/08/21 07:33:36;;;;;;;;;;;21.20;99.90;;;;;;8441714;28;19924;-72
2023/08/21 07:37:38;;;;;;;;;;;21.20;99.90;;;;;;8420978;28;19972;-72
2023/08/21 07:41:40;;;;;;;;;;;21.20;99.90;;;;;;8434398;28;19924;-72
2023/08/21 07:45:42;;;;;;;;;;;21.20;99.90;;;;;;8441520;28;19931;-72
2023/08/21 07:49:43;;;;;;;;;;;21.20;99.90;;;;;;8419516;28;19947;-72
2023/08/21 07:53:45;;;;;;;;;;;21.20;99.90;;;;;;8412699;28;20376;-72
2023/08/21 07:57:47;;;;;;;;;;;21.30;99.90;;;;;;8421453;28;19931;-72
2023/08/21 08:01:49;;;;;;;;;;;21.30;99.90;;;;;;8432660;28;19939;-72
2023/08/21 08:05:51;;;;;;;;;;;21.40;99.90;;;;;;8436253;28;19924;-72
2023/08/21 08:09:56;;;;;;;;;;;21.40;99.90;;;;;;8431368;28;20195;-72
2023/08/21 08:13:57;;;;;;;;;;;21.50;99.90;;;;;;8438479;28;19935;-72
2023/08/21 08:17:59;;;;;;;;;;;21.50;99.90;;;;;;8426777;28;19924;-72
2023/08/21 08:22:01;;;;;;;;;;;21.60;99.90;;;;;;8434555;28;20329;-72
2023/08/21 08:26:03;;;;;;;;;;;21.70;99.90;;;;;;8423195;28;20232;-72
2023/08/21 08:30:05;;;;;;;;;;;21.70;99.90;;;;;;8420397;28;20411;-72
2023/08/21 08:34:07;;;;;;;;;;;21.80;99.90;;;;;;8444262;28;19942;-72
2023/08/21 08:38:09;;;;;;;;;;;21.80;99.90;;;;;;8422678;28;20384;-72
2023/08/21 08:42:10;;;;;;;;;;;21.80;99.90;;;;;;8423235;28;19970;-72
2023/08/21 08:46:12;;;;;;;;;;;21.90;99.90;;;;;;8434699;28;19965;-72
2023/08/21 08:50:14;;;;;;;;;;;21.90;99.90;;;;;;8428336;28;19974;-72
2023/08/21 08:54:16;;;;;;;;;;;22.00;99.90;;;;;;8407507;28;19924;-72
2023/08/21 08:58:18;;;;;;;;;;;22.10;99.90;;;;;;8427491;28;19936;-72
2023/08/21 09:02:19;;;;;;;;;;;22.10;99.90;;;;;;8421506;28;20339;-72
2023/08/21 09:06:21;;;;;;;;;;;22.10;99.90;;;;;;8419734;28;19953;-72
2023/08/21 09:10:25;;;;;;;;;;;22.10;99.90;;;;;;8436750;28;20340;-72
2023/08/21 09:14:28;;;;;;;;;;;22.20;99.90;;;;;;8418999;28;20272;-72
2023/08/21 09:18:29;;;;;;;;;;;22.30;99.90;;;;;;8422562;28;20333;-71
2023/08/21 09:22:31;;;;;;;;;;;22.30;99.90;;;;;;8424111;28;19932;-72
2023/08/21 09:26:33;;;;;;;;;;;22.40;99.90;;;;;;8423438;28;20295;-73
2023/08/21 09:30:43;;;;;;;;;;;22.50;99.90;;;;;;8431914;28;19923;-72
2023/08/21 09:34:45;;;;;;;;;;;22.60;99.90;;;;;;8405547;28;19976;-73
2023/08/21 09:38:47;;;;;;;;;;;22.60;99.90;;;;;;8432867;28;19931;-72
2023/08/21 09:42:54;;;;;;;;;;;22.70;99.90;;;;;;8426065;28;19923;-72
2023/08/21 09:46:55;;;;;;;;;;;22.70;99.90;;;;;;8407157;28;20329;-72
2023/08/21 09:50:57;;;;;;;;;;;22.70;99.90;;;;;;8432903;28;19969;-72
2023/08/21 09:55:00;;;;;;;;;;;22.80;99.90;;;;;;8433284;28;19960;-72
2023/08/21 09:59:02;;;;;;;;;;;22.80;99.90;;;;;;8437278;28;19931;-72
2023/08/21 10:03:05;;;;;;;;;;;22.90;99.90;;;;;;8420657;28;19931;-72
2023/08/21 10:07:07;;;;;;;;;;;22.90;99.90;;;;;;8434029;28;19930;-73
2023/08/21 10:11:09;;;;;;;;;;;23.00;99.90;;;;;;8428416;28;20007;-72
2023/08/21 10:15:11;;;;;;;;;;;23.10;99.90;;;;;;8424641;28;20342;-72
2023/08/21 10:19:14;;;;;;;;;;;23.10;99.90;;;;;;8424099;28;19932;-72
2023/08/21 10:23:26;;;;;;;;;;;23.20;99.90;;;;;;8425012;28;20356;-72
2023/08/21 10:27:30;;;;;;;;;;;23.20;99.90;;;;;;8421962;28;19935;-72
2023/08/21 10:31:40;;;;;;;;;;;23.30;99.90;;;;;;8430253;28;19923;-72
2023/08/21 10:35:41;;;;;;;;;;;23.50;99.90;;;;;;8434191;28;19966;-72
2023/08/21 10:39:59;;;;;;;;;;;23.50;99.90;;;;;;8440203;28;20452;-72
2023/08/21 10:44:02;;;;;;;;;;;23.60;99.90;;;;;;8433477;28;19924;-72
2023/08/21 10:48:03;;;;;;;;;;;23.60;99.90;;;;;;8432844;28;19928;-72
2023/08/21 10:52:06;;;;;;;;;;;23.60;99.90;;;;;;8428067;28;20522;-72
2023/08/21 10:56:08;;;;;;;;;;;23.60;99.90;;;;;;8405045;28;19936;-72
2023/08/21 11:00:11;;;;;;;;;;;23.70;99.90;;;;;;8434881;28;19939;-72
2023/08/21 11:04:13;;;;;;;;;;;23.80;99.90;;;;;;8430091;28;20666;-71
2023/08/21 11:08:17;;;;;;;;;;;23.80;99.90;;;;;;8432006;28;20436;-72
2023/08/21 11:12:20;;;;;;;;;;;23.80;99.90;;;;;;8426255;28;20249;-72
2023/08/21 11:16:24;;;;;;;;;;;23.70;99.90;;;;;;8426966;28;20448;-72
2023/08/21 11:20:33;;;;;;;;;;;23.70;99.90;;;;;;8448732;27;19935;-72
2023/08/21 11:24:38;;;;;;;;;;;23.70;99.90;;;;;;8422246;28;19931;-72
2023/08/21 11:28:39;;;;;;;;;;;23.80;99.90;;;;;;8427898;28;19924;-72
2023/08/21 11:32:41;;;;;;;;;;;24.00;99.90;;;;;;8437214;28;19928;-73
2023/08/21 11:36:44;;;;;;;;;;;24.10;99.90;;;;;;8436042;28;19925;-73
2023/08/21 11:40:51;;;;;;;;;;;24.20;99.90;;;;;;8433658;28;20283;-73
2023/08/21 11:44:53;;;;;;;;;;;24.20;99.90;;;;;;8434545;28;19924;-72
2023/08/21 11:48:55;;;;;;;;;;;24.30;99.90;;;;;;8438483;28;19923;-72
2023/08/21 11:52:56;;;;;;;;;;;24.30;99.90;;;;;;8430236;28;19969;-72
2023/08/21 11:56:58;;;;;;;;;;;24.30;99.90;;;;;;8425903;28;19932;-72
2023/08/21 12:01:03;;;;;;;;;;;24.50;99.90;;;;;;8433875;28;19973;-73
2023/08/21 12:05:06;;;;;;;;;;;24.50;99.90;;;;;;8417605;28;19968;-73
2023/08/21 12:09:07;;;;;;;;;;;24.50;99.90;;;;;;8420853;28;19924;-72
2023/08/21 12:13:09;;;;;;;;;;;24.60;99.90;;;;;;8411035;28;19924;-72
2023/08/21 12:17:11;;;;;;;;;;;24.70;99.90;;;;;;8432381;28;19924;-72
2023/08/21 12:21:13;;;;;;;;;;;24.70;99.90;;;;;;8417889;28;19939;-72
2023/08/21 12:25:16;;;;;;;;;;;24.80;99.90;;;;;;8411823;28;19939;-72
2023/08/21 12:29:17;;;;;;;;;;;24.80;99.90;;;;;;8436272;28;19946;-72
2023/08/21 12:33:19;;;;;;;;;;;24.80;99.90;;;;;;8439772;28;19924;-72
2023/08/21 12:37:25;;;;;;;;;;;24.90;99.90;;;;;;8435418;28;19928;-72
2023/08/21 12:41:27;;;;;;;;;;;24.90;99.90;;;;;;8415436;28;19980;-72
2023/08/21 12:45:28;;;;;;;;;;;24.90;99.90;;;;;;8420802;28;19927;-72
2023/08/21 12:49:30;;;;;;;;;;;24.90;99.90;;;;;;8396533;28;19982;-72
2023/08/21 12:53:31;;;;;;;;;;;25.00;99.90;;;;;;8424742;28;20372;-73
2023/08/21 12:57:33;;;;;;;;;;;25.00;99.90;;;;;;8405914;28;19931;-72
2023/08/21 13:01:35;;;;;;;;;;;25.00;99.90;;;;;;8412095;28;20413;-72
2023/08/21 13:05:37;;;;;;;;;;;25.20;99.90;;;;;;8434740;28;19923;-72
2023/08/21 13:09:39;;;;;;;;;;;25.20;99.90;;;;;;8426156;28;19928;-73
2023/08/21 13:13:40;;;;;;;;;;;25.10;99.90;;;;;;8445412;27;19923;-72
2023/08/21 13:17:43;;;;;;;;;;;25.10;99.90;;;;;;8430580;28;19935;-72
2023/08/21 13:21:45;;;;;;;;;;;25.10;99.90;;;;;;8423649;28;20406;-72
2023/08/21 13:25:46;;;;;;;;;;;25.20;99.90;;;;;;8424598;28;20000;-72
2023/08/21 13:29:48;;;;;;;;;;;25.20;99.90;;;;;;8427126;28;19928;-72
2023/08/21 13:33:50;;;;;;;;;;;25.30;99.90;;;;;;8431143;28;19931;-72
2023/08/21 13:37:52;;;;;;;;;;;25.20;99.90;;;;;;8403931;28;20509;-72
2023/08/21 13:41:54;;;;;;;;;;;25.10;99.90;;;;;;8415084;28;19933;-72
2023/08/21 13:45:55;;;;;;;;;;;25.10;99.90;;;;;;8433273;28;19924;-72
2023/08/21 13:49:57;;;;;;;;;;;24.90;99.90;;;;;;8428604;28;19923;-72
2023/08/21 13:53:59;;;;;;;;;;;24.90;99.90;;;;;;8439759;28;20034;-72
2023/08/21 13:58:00;;;;;;;;;;;24.80;99.90;;;;;;8442767;28;19928;-72
2023/08/21 14:02:02;;;;;;;;;;;24.80;99.90;;;;;;8413166;28;19947;-72
2023/08/21 14:06:04;;;;;;;;;;;24.80;99.90;;;;;;8426225;28;20474;-72
2023/08/21 14:10:06;;;;;;;;;;;24.80;99.90;;;;;;8423405;28;19928;-72
2023/08/21 14:14:08;;;;;;;;;;;25.00;99.90;;;;;;8420976;28;19928;-72
2023/08/21 14:18:10;;;;;;;;;;;25.10;99.90;;;;;;8426873;28;20025;-72
2023/08/21 14:22:12;;;;;;;;;;;25.10;99.90;;;;;;8407899;28;19930;-72
2023/08/21 14:26:13;;;;;;;;;;;25.00;99.90;;;;;;8432502;28;19925;-72
2023/08/21 14:30:15;;;;;;;;;;;25.20;99.90;;;;;;8416014;28;20117;-73
2023/08/21 14:34:17;;;;;;;;;;;25.30;99.90;;;;;;8419842;28;19928;-72
2023/08/21 14:38:18;;;;;;;;;;;25.30;99.90;;;;;;8421498;28;20279;-72
2023/08/21 14:42:20;;;;;;;;;;;25.50;99.90;;;;;;8419469;28;19979;-73
2023/08/21 14:46:22;;;;;;;;;;;25.60;99.90;;;;;;8426877;28;20268;-72
2023/08/21 14:50:35;;;;;;;;;;;25.70;99.90;;;;;;8427192;28;19969;-72
2023/08/21 14:54:37;;;;;;;;;;;25.70;99.90;;;;;;8423202;28;19923;-72
2023/08/21 14:58:38;;;;;;;;;;;25.70;99.90;;;;;;8413339;28;19977;-72
2023/08/21 15:02:40;;;;;;;;;;;25.60;99.90;;;;;;8404491;28;19972;-72
2023/08/21 15:06:42;;;;;;;;;;;25.60;99.90;;;;;;8421494;28;19969;-71
2023/08/21 15:10:44;;;;;;;;;;;25.60;99.90;;;;;;8437223;28;20347;-72
2023/08/21 15:14:46;;;;;;;;;;;25.80;99.90;;;;;;8424537;28;19986;-72
2023/08/21 15:18:51;;;;;;;;;;;26.00;99.90;;;;;;8433188;28;19931;-73
2023/08/21 15:22:53;;;;;;;;;;;26.20;99.90;;;;;;8406870;28;19924;-72
2023/08/21 15:26:55;;;;;;;;;;;26.50;99.90;;;;;;8412221;28;19929;-72
2023/08/21 15:30:57;;;;;;;;;;;26.80;99.90;;;;;;8411719;28;20500;-73
2023/08/21 15:35:01;;;;;;;;;;;27.00;99.90;;;;;;8419131;27;19958;-73
2023/08/21 15:39:02;;;;;;;;;;;27.00;99.90;;;;;;8413450;28;19939;-73
2023/08/21 15:43:06;;;;;;;;;;;27.10;99.90;;;;;;8419878;28;19935;-72
2023/08/21 15:47:08;;;;;;;;;;;27.20;99.90;;;;;;8415260;28;19933;-73
2023/08/21 15:51:29;;;;;;;;;;;27.30;99.90;;;;;;8389857;28;20442;-72
2023/08/21 15:55:31;;;;;;;;;;;27.50;99.90;;;;;;8420977;28;20371;-72
2023/08/21 15:59:32;;;;;;;;;;;27.90;99.90;;;;;;8400943;28;20382;-73
2023/08/21 16:03:35;;;;;;;;;;;28.30;99.90;;;;;;8391988;28;19929;-73
2023/08/21 16:07:36;;;;;;;;;;;28.60;99.90;;;;;;8386254;28;19943;-72
2023/08/21 16:11:38;;;;;;;;;;;28.90;99.90;;;;;;8389302;28;19924;-73
2023/08/21 16:15:40;;;;;;;;;;;29.20;99.90;;;;;;8390129;28;19932;-72
2023/08/21 16:19:42;;;;;;;;;;;29.40;99.90;;;;;;8389136;28;20513;-73
2023/08/21 16:23:44;;;;;;;;;;;29.40;99.90;;;;;;8381061;28;19940;-72
2023/08/21 16:27:46;;;;;;;;;;;29.40;99.90;;;;;;8385114;28;19939;-72
2023/08/21 16:31:48;;;;;;;;;;;29.40;99.90;;;;;;8383876;28;19932;-72
2023/08/21 16:35:50;;;;;;;;;;;29.40;99.90;;;;;;8386063;28;19928;-73
2023/08/21 16:39:51;;;;;;;;;;;29.40;99.90;;;;;;8402479;27;19932;-72
2023/08/21 16:43:53;;;;;;;;;;;29.30;99.90;;;;;;8389265;28;19928;-72
2023/08/21 16:47:55;;;;;;;;;;;29.30;99.90;;;;;;8399162;27;20304;-72
2023/08/21 16:51:56;;;;;;;;;;;29.30;99.90;;;;;;8386279;28;19925;-73
2023/08/21 16:55:58;;;;;;;;;;;29.30;99.90;;;;;;8389496;28;19947;-72
2023/08/21 17:00:00;;;;;;;;;;;29.20;99.90;;;;;;8386219;28;19928;-72
2023/08/21 17:04:01;;;;;;;;;;;29.10;99.90;;;;;;8384260;28;19932;-72
2023/08/21 17:08:03;;;;;;;;;;;29.00;99.90;;;;;;8392720;28;19935;-72
2023/08/21 17:12:05;;;;;;;;;;;29.00;99.90;;;;;;8389771;28;19932;-73
2023/08/21 17:16:07;;;;;;;;;;;29.00;99.90;;;;;;8378821;28;19935;-72
2023/08/21 17:20:09;;;;;;;;;;;28.80;99.90;;;;;;8380728;28;19931;-73
2023/08/21 17:24:11;;;;;;;;;;;28.60;99.90;;;;;;8386989;28;19928;-73
2023/08/21 17:28:12;;;;;;;;;;;28.30;99.90;;;;;;8384353;28;19951;-73
2023/08/21 17:32:14;;;;;;;;;;;28.10;99.90;;;;;;8368560;28;20398;-73
2023/08/21 17:36:16;;;;;;;;;;;27.80;99.90;;;;;;8385569;28;19924;-73
2023/08/21 17:40:18;;;;;;;;;;;27.50;99.90;;;;;;8384203;28;19932;-72
2023/08/21 17:44:19;;;;;;;;;;;27.30;99.90;;;;;;8384945;28;19939;-72
2023/08/21 17:48:21;;;;;;;;;;;27.00;99.90;;;;;;8390369;28;19932;-72
2023/08/21 17:52:23;;;;;;;;;;;26.70;99.90;;;;;;8398746;28;19932;-72
2023/08/21 17:56:25;;;;;;;;;;;26.60;99.90;;;;;;8385304;28;19946;-72
2023/08/21 18:00:26;;;;;;;;;;;26.40;99.90;;;;;;8390856;28;19928;-72
2023/08/21 18:04:28;;;;;;;;;;;26.30;99.90;;;;;;8384582;28;19939;-72
2023/08/21 18:08:30;;;;;;;;;;;26.10;99.90;;;;;;8383870;28;19997;-73
2023/08/21 18:12:31;;;;;;;;;;;26.00;99.90;;;;;;8403786;28;19951;-72
2023/08/21 18:16:33;;;;;;;;;;;25.90;99.90;;;;;;8386871;28;20280;-72
2023/08/21 18:20:48;;;;;;;;;;;25.80;99.90;;;;;;8388183;28;19925;-73
2023/08/21 18:24:50;;;;;;;;;;;25.70;99.90;;;;;;8405394;28;20011;-72
2023/08/21 18:28:52;;;;;;;;;;;25.70;99.90;;;;;;8383704;28;20524;-72
2023/08/21 18:32:53;;;;;;;;;;;25.60;99.90;;;;;;8388610;28;19928;-72
2023/08/21 18:36:59;;;;;;;;;;;25.50;99.90;;;;;;8390024;28;19936;-72
2023/08/21 18:41:00;;;;;;;;;;;25.40;99.90;;;;;;8387066;28;19974;-73
2023/08/21 18:45:02;;;;;;;;;;;25.30;99.90;;;;;;8391726;28;20024;-73
2023/08/21 18:59:11;;;;;;;;;;;24.90;99.90;;;;;;8394025;28;20349;-73
2023/08/21 19:03:14;;;;;;;;;;;24.60;99.90;;;;;;8407001;27;19928;-72
2023/08/21 19:07:16;;;;;;;;;;;24.50;99.90;;;;;;8401849;28;19956;-72
2023/08/21 19:11:18;;;;;;;;;;;24.30;99.90;;;;;;8392177;28;19975;-72
2023/08/21 19:15:20;;;;;;;;;;;24.20;99.90;;;;;;8391360;28;20411;-72
2023/08/21 19:19:22;;;;;;;;;;;24.00;99.90;;;;;;8394934;28;19940;-72
2023/08/21 19:23:24;;;;;;;;;;;23.80;99.90;;;;;;8394871;28;19928;-72
2023/08/21 19:27:25;;;;;;;;;;;23.70;99.90;;;;;;8403715;28;19973;-72
2023/08/21 19:31:27;;;;;;;;;;;23.60;99.90;;;;;;8400830;28;19924;-72
2023/08/21 19:35:31;;;;;;;;;;;23.50;99.90;;;;;;8400352;28;19943;-72
2023/08/21 19:39:33;;;;;;;;;;;23.40;99.90;;;;;;8402289;28;20295;-72
2023/08/21 19:43:34;;;;;;;;;;;23.30;99.90;;;;;;8395845;28;19923;-72
2023/08/21 19:47:36;;;;;;;;;;;23.20;99.90;;;;;;8402627;28;19932;-73
2023/08/21 19:51:38;;;;;;;;;;;23.20;99.90;;;;;;8395549;28;20463;-72
2023/08/21 19:55:40;;;;;;;;;;;23.10;99.90;;;;;;8397827;28;19928;-72
2023/08/21 19:59:42;;;;;;;;;;;23.10;99.90;;;;;;8399247;28;19932;-73
2023/08/21 20:03:43;;;;;;;;;;;23.10;99.90;;;;;;8416222;27;19931;-72
2023/08/21 20:07:45;;;;;;;;;;;22.90;99.90;;;;;;8404650;28;19933;-73
2023/08/21 20:11:47;;;;;;;;;;;22.80;99.90;;;;;;8404146;28;19950;-73
2023/08/21 20:15:49;;;;;;;;;;;22.70;99.90;;;;;;8413061;27;19951;-72
2023/08/21 20:19:50;;;;;;;;;;;22.50;99.90;;;;;;8399903;28;19930;-72
2023/08/21 20:23:52;;;;;;;;;;;22.30;99.90;;;;;;8400296;28;19998;-72
2023/08/21 20:27:54;;;;;;;;;;;22.00;99.90;;;;;;8400716;28;19932;-73
2023/08/21 20:31:55;;;;;;;;;;;21.90;99.90;;;;;;8399324;28;19924;-73
2023/08/21 20:35:57;;;;;;;;;;;21.90;99.90;;;;;;8396668;28;19924;-73
2023/08/21 20:39:59;;;;;;;;;;;21.80;99.90;;;;;;8395887;28;19966;-72
2023/08/21 20:44:01;;;;;;;;;;;21.80;99.90;;;;;;8400885;28;19932;-73
2023/08/21 20:48:03;;;;;;;;;;;21.70;99.90;;;;;;8401576;28;20438;-72
2023/08/21 20:52:05;;;;;;;;;;;21.60;99.90;;;;;;8401280;28;20070;-73
2023/08/21 20:56:07;;;;;;;;;;;21.50;99.90;;;;;;8399111;28;19928;-72
2023/08/21 21:00:11;;;;;;;;;;;21.60;99.90;;;;;;8410986;27;19951;-73
2023/08/21 21:04:13;;;;;;;;;;;21.50;99.90;;;;;;8423875;28;19932;-73
2023/08/21 21:08:17;;;;;;;;;;;21.40;99.90;;;;;;8416543;28;19923;-72
2023/08/21 21:12:18;;;;;;;;;;;21.40;99.90;;;;;;8430117;27;19953;-73
2023/08/21 21:16:20;;;;;;;;;;;21.30;99.90;;;;;;8417450;28;19924;-72
2023/08/21 21:20:22;;;;;;;;;;;21.20;99.90;;;;;;8423907;28;20239;-73
2023/08/21 21:24:24;;;;;;;;;;;21.20;99.90;;;;;;8420845;28;20320;-73
2023/08/21 21:28:27;;;;;;;;;;;21.10;99.90;;;;;;8413408;28;19927;-73
2023/08/21 21:32:29;;;;;;;;;;;21.00;99.90;;;;;;8409418;28;20287;-73
2023/08/21 21:36:30;;;;;;;;;;;21.00;99.90;;;;;;8419818;28;20372;-73
2023/08/21 21:40:32;;;;;;;;;;;20.90;99.90;;;;;;8427979;28;20013;-72
2023/08/21 21:44:34;;;;;;;;;;;20.80;99.90;;;;;;8419430;28;19932;-72
2023/08/21 21:48:35;;;;;;;;;;;20.70;99.90;;;;;;8425678;28;20595;-73
2023/08/21 21:52:37;;;;;;;;;;;20.60;99.90;;;;;;8427648;27;19973;-73
2023/08/21 22:01:42;;;;;;;;;;;20.60;99.90;;;;;;8411098;28;19919;-73
2023/08/21 22:05:44;;;;;;;;;;;20.70;99.90;;;;;;8426690;28;19967;-73
2023/08/21 22:09:47;;;;;;;;;;;20.60;99.90;;;;;;8420531;28;19931;-72
2023/08/21 22:13:50;;;;;;;;;;;20.60;99.90;;;;;;8417008;28;20333;-73
2023/08/21 22:17:51;;;;;;;;;;;20.50;99.90;;;;;;8418539;28;19950;-73
2023/08/21 22:21:53;;;;;;;;;;;20.50;99.90;;;;;;8421629;28;19938;-73
2023/08/21 22:25:55;;;;;;;;;;;20.50;99.90;;;;;;8412982;28;19924;-73
2023/08/21 22:29:56;;;;;;;;;;;20.50;99.90;;;;;;8413870;28;19925;-73
2023/08/21 22:33:58;;;;;;;;;;;20.50;99.90;;;;;;8414953;28;20379;-73
2023/08/21 22:38:00;;;;;;;;;;;20.50;99.90;;;;;;8417561;28;19970;-72
2023/08/21 22:42:01;;;;;;;;;;;20.40;99.90;;;;;;8423911;28;20305;-73
2023/08/21 22:46:04;;;;;;;;;;;20.40;99.90;;;;;;8407919;28;19932;-73
2023/08/21 22:50:06;;;;;;;;;;;20.30;99.90;;;;;;8421976;28;19991;-73
2023/08/21 22:54:08;;;;;;;;;;;20.30;99.90;;;;;;8420144;28;19939;-73
2023/08/21 22:58:09;;;;;;;;;;;20.30;99.90;;;;;;8420024;28;19924;-73
2023/08/21 23:02:11;;;;;;;;;;;20.40;99.90;;;;;;8420150;28;19932;-73
2023/08/21 23:06:12;;;;;;;;;;;20.30;99.90;;;;;;8422136;28;19931;-72
2023/08/21 23:10:14;;;;;;;;;;;20.30;99.90;;;;;;8433288;28;20349;-72
2023/08/21 23:14:16;;;;;;;;;;;20.30;99.90;;;;;;8423061;28;19928;-73
2023/08/21 23:18:18;;;;;;;;;;;20.30;99.90;;;;;;8416633;28;19924;-73
2023/08/21 23:22:22;;;;;;;;;;;20.20;99.90;;;;;;8426116;28;20251;-73
2023/08/21 23:26:24;;;;;;;;;;;20.20;99.90;;;;;;8413469;28;19928;-73
2023/08/21 23:30:25;;;;;;;;;;;20.10;99.90;;;;;;8411764;28;19931;-73
2023/08/21 23:34:27;;;;;;;;;;;20.10;99.90;;;;;;8427227;28;20001;-73
2023/08/21 23:38:29;;;;;;;;;;;20.10;99.90;;;;;;8418903;28;19978;-73
2023/08/21 23:42:31;;;;;;;;;;;20.00;99.90;;;;;;8407279;28;19932;-73